TRINITY LAKE (CLE)

Elevation: 2370' · TRINITY R basin · Operator: US Bureau of Reclamation

Provisional data, subject to change.
Query executed Sunday at 17:51:50   clock

Select a sensor type for a plot of data.
Note: Reservoir Flows are daily averages.

Earlier

Date RES ELE    STORAGE    RES CHG    OUTFLOW    INFLOW    EVAP    FNF    RIV REL    PPT INC    SPILL    DIS PWR   
 FEET   AF   AF   CFS   CFS   CFS   CFS   CFS   INCHES   CFS   CFS  
06/06/2015 2255.98 1007641 -3048 1968 489 58 489 0 0.17 0 1968
06/07/2015 2255.67 1004877 -2764 1762 448 79 448 0 0.00 0 1762
06/08/2015 2255.36 1002113 -2764 1785 473 81 473 0 0.00 0 1785
06/09/2015 2255.03 999171 -2942 1790 388 81 388 0 0.00 0 1790
06/10/2015 2254.71 996335 -2836 1786 424 68 424 0 0.13 0 1786
06/11/2015 2254.38 993411 -2924 1809 395 60 395 0 0.00 0 1809
06/12/2015 2254.01 990133 -3278 1843 302 112 302 0 0.00 0 1843
06/13/2015 2253.71 987490 -2643 1543 294 83 294 0 0.00 0 1543
06/14/2015 2253.33 984144 -3346 1799 200 88 200 0 0.00 0 1799
06/15/2015 2252.94 980713 -3431 1851 209 88 209 0 0.00 0 1851
06/16/2015 2252.55 977299 -3414 1805 169 85 169 0 0.00 0 1805
06/17/2015 2252.23 974498 -2801 1563 236 85 165 0 0.00 0 1563
06/18/2015 2251.83 971006 -3492 1798 93 56 164 e 0 0.00 0 1798
06/19/2015 2251.46 967788 -3218 1712 169 79 169 e 0 0.00 0 1712
06/20/2015 2251.07 964395 -3393 1882 253 82 193 e 0 0.00 0 1882
06/21/2015 2250.66 960846 -3549 1847 132 74 132 e 0 0.00 0 1847
06/22/2015 2250.26 957388 -3458 1867 203 79 203 0 0.00 0 1867
06/23/2015 2249.86 953937 -3451 1891 245 94 245 0 0.00 0 1891
06/24/2015 2249.46 950501 -3436 1848 192 76 282 e 0 0.00 0 1848
06/25/2015 2249.08 947236 -3265 1934 371 83 281 e 0 0.00 0 1934
06/26/2015 2248.69 943903 -3333 1912 310 78 310 0 0.00 0 1912
06/27/2015 2248.31 940658 -3245 1789 241 88 241 0 0.00 0 1789
06/28/2015 2247.91 937249 -3409 1852 231 98 231 0 0.00 0 1852
06/29/2015 2247.49 933686 -3563 1860 126 62 126 0 0.00 0 1860
06/30/2015 2247.08 930209 -3477 1915 254 92 254 0 0.00 0 1915
07/01/2015 2246.68 926833 -3376 1765 142 79 -- 0 0.00 0 1765
07/02/2015 2246.26 923294 -3539 1930 245 99 -- 0 0.00 0 1930
07/03/2015 2245.86 919931 -3363 1743 120 72 -- 0 0.00 0 1743
07/04/2015 2245.47 916665 -3266 1730 152 69 -- 0 0.00 0 1730
07/05/2015 -- -- -- -- -- -- -- -- -- -- --

Later | Latest

Warning! This data is preliminary and subject to revision.

Show CLE Map | Plot CLE Data | 1 Month CLE Data | Real-Time CLE Data | CLE Info